メインページ
METAR-TAF:

METAR-TAF

空港 :

フロリアノーポリス, サンタカタリーナ州, ブラジル

エルシリオ・ルス国際空港

緯度: 27-40S, 経度: 048-33W, 海抜: 5m

現時点の気象観測

当レポートは19分前の19:00(UTC)に作成
の風 9kt
気温 27°C
湿度 70%
気圧 1015 hPa
視程10km以上
高度3000ftの雲はほとんどない, 塔状積雲.
高度3000ftの雲は散在している

METAR: SBFL 251900Z 09009KT 9999 FEW030TCU SCT030 27/21 Q1015

時間: 16:19 (19:19 UTC)

予報

当レポートは3時間49分前の15:30(UTC)に作成
予報は25日の 18時(UTC)から 26日の 18時(UTC)まで有効
東/北東の風 7kt
視程10km以上
高度2500ftの雲は散在している
確率 40% :
25日の 18時(UTC)から 25日の 20時(UTC)まで一時的に
高度3000ftの雲は散在している
高度4000ftの雲はほとんどない, 塔状積雲.
近辺でにわか雨
26日の 00時(UTC)から 26日の 02時(UTC)まで徐々に
北/北西の風 5kt
高度2500ftの千切れ雲あり
26日の 10時(UTC)から 26日の 12時(UTC)まで徐々に
高度2500ftの雲は散在している

TAF: SBFL 251530Z 2518/2618 06007KT 9999 SCT025 TX27/2518Z TN22/2608Z PROB40 TEMPO 2518/2520 VCSH SCT030 FEW040TCU BECMG 2600/2602 33005KT BKN025 BECMG 2610/2612 SCT025 RMK PEB

4,000以上の空港の気象観測と天気予報(METAR報とTAF報)

利用可能な観測所は地図上に黄色い丸と赤い丸で示す。

丸の上にカーソルを重ねると観測所名を参照できる。

次にクリックすると気象観測と天気予報を参照できる。

マップの切り替え:黒色「×」印の緑ボタンをクリックして拡大、「-」印の緑ボタンをクリックして縮小、緑色の三角印をクリックして隣りの地図に切り替え


METAR-TAF: